Hovedside
METAR-TAF:

METAR-TAF

Lufthavner :

Vidsel, Sverige

breddegrad: 65-52N, lengdegrad: 020-08E, høyde over havet: 180 m

Gjeldene værobservasjon

Denne rapporten ble laget for 1 time og 8 minutter siden, klokken 09:50 UTC
Vind 11 kt fra Nord
Temperatur 0°C
Luftfuktighet 69%
Trykk 1006 hPa
Sikt 10 km eller mer
Få skyer i en høyde av 2500 ft
Brutte skyer i en høyde av 3300 ft
lett snø

METAR: ESPE 270950Z 36011KT 9999 -SN FEW025 BKN033 M00/M05 Q1006

Tid: 12:58 (10:58 UTC)

Varsel

Denne rapporten ble laget for 2 timer og 28 minutter siden, klokken 08:30 UTC
Varsel gyldig fra 27. klokken 09 UTC til 27. klokken 14 UTC
Vind 10 kt fra Nord-nordvest
Sikt 10 km eller mer
Spredte skyer i en høyde av 2000 ft
Brutte skyer i en høyde av 3000 ft
Midlertidig
fra 27. klokken 09 UTC til 27. klokken 14 UTC
Sikt: 4000 m
Brutte skyer i en høyde av 2000 ft
lett snø

TAF: ESPE 270830Z 2709/2714 34010KT 9999 SCT020 BKN030 TEMPO 2709/2714 4000 -SN BKN020 RMK MIL

Værobservasjoner og værvarsel for over 4000 flyplasser (METAR- og TAF-rapporter).

Tilgjengelige stasjoner er representert av de røde og gule prikkene på kartet.

Hold musepekeren over prikken for å se navnet på stasjonen.

Klikk så for å se værobservasjoner og -varsler.

For å forandre kartet kan du klikke på den grønne knappen med svart kryss for å zoome inn, på den grønne knappen med strek for å zoome ut, eller på de grønne pilene for å se tilstøtende kart.


METAR-TAF: